North American — WBL7959 — position and weather

sailwx.info

Track history (hours):
 
Tides and Currents Weather Stations Pressure Air Temp Water Temp Dewpoint Dewpoint Depression Visibility Wind Speed Wind Dir Waves Ship Positions

North American

Owner: NORTH AMERICAN INC, SEATTLE, WA. More information available from US FCC via Universal Licensing System and Coast Guard Vessel Documentation Center.

Last reported at 2016-Aug-19 17:22 UTC. Time now 2016-Sep-25 22:32 UTC.
Position N 47°39' W 122°22'.
Warning: this ship's position is 37 days out of date.

Length 32 m; draft 2.5 m.

Type: Fishing. MMSI: 367307370.

Date/timePositionNaut miles runAvg speedWind from/ knotsBaromVisibWave heightAir tempDewpointWater temp
2016-Aug-19 17:22N 47°39' W 122°22'0 0.0
2016-Aug-19 16:33N 47°39' W 122°22'1 0.8
2016-Aug-19 15:34N 47°40' W 122°23'2 2.5
2016-Aug-19 14:34N 47°42' W 122°26'10 9.9
2016-Aug-19 13:33N 47°51' W 122°29'1010.0
2016-Aug-19 12:33N 47°60' W 122°37'20 9.8
2016-Aug-19 10:32N 48°11' W 123°01'1010.6
2016-Aug-19 09:34N 48°12' W 123°17'1110.7
2016-Aug-19 08:33N 48°15' W 123°32'1010.3
2016-Aug-19 07:32N 48°18' W 123°47'10 9.9
2016-Aug-19 06:33N 48°22' W 124°01'10 9.9
2016-Aug-19 05:33N 48°26' W 124°14'10 9.7
2016-Aug-19 04:33N 48°29' W 124°28'9 8.9
2016-Aug-19 03:33N 48°32' W 124°41'9 9.2
2016-Aug-19 02:33N 48°36' W 124°54'11 9.5
2016-Aug-19 01:24N 48°41' W 125°08'910.0
2016-Aug-19 00:33N 48°45' W 125°20'1010.0
2016-Aug-18 23:33N 48°49' W 125°33'1110.5
2016-Aug-18 22:33N 48°54' W 125°47'1010.4
2016-Aug-18 21:33N 49°00' W 126°01'10 9.7
2016-Aug-18 20:31N 49°06' W 126°13'9 9.3
2016-Aug-18 19:30N 49°12' W 126°24'9 9.4
2016-Aug-18 18:33N 49°17' W 126°36'9 9.1
2016-Aug-18 17:32N 49°23' W 126°47'  
Track history (hours):
 
Tides and Currents Weather Stations Pressure Air Temp Water Temp Dewpoint Dewpoint Depression Visibility Wind Speed Wind Dir Waves Ship Positions

North American

Owner: NORTH AMERICAN INC, SEATTLE, WA. More information available from US FCC via Universal Licensing System and Coast Guard Vessel Documentation Center.

Last reported at 2016-Aug-19 17:22 UTC. Time now 2016-Sep-25 22:32 UTC.
Position N 47°39' W 122°22'.
Warning: this ship's position is 37 days out of date.

Length 32 m; draft 2.5 m.

Type: Fishing. MMSI: 367307370.

Date/timePositionNaut miles runAvg speedWind from/ knotsBaromVisibWave heightAir tempDewpointWater temp
2016-Aug-19 17:22N 47°39' W 122°22'0 0.0
2016-Aug-19 16:33N 47°39' W 122°22'1 0.8
2016-Aug-19 15:34N 47°40' W 122°23'2 2.5
2016-Aug-19 14:34N 47°42' W 122°26'10 9.9
2016-Aug-19 13:33N 47°51' W 122°29'1010.0
2016-Aug-19 12:33N 47°60' W 122°37'20 9.8
2016-Aug-19 10:32N 48°11' W 123°01'1010.6
2016-Aug-19 09:34N 48°12' W 123°17'1110.7
2016-Aug-19 08:33N 48°15' W 123°32'1010.3
2016-Aug-19 07:32N 48°18' W 123°47'10 9.9
2016-Aug-19 06:33N 48°22' W 124°01'10 9.9
2016-Aug-19 05:33N 48°26' W 124°14'10 9.7
2016-Aug-19 04:33N 48°29' W 124°28'9 8.9
2016-Aug-19 03:33N 48°32' W 124°41'9 9.2
2016-Aug-19 02:33N 48°36' W 124°54'11 9.5
2016-Aug-19 01:24N 48°41' W 125°08'910.0
2016-Aug-19 00:33N 48°45' W 125°20'1010.0
2016-Aug-18 23:33N 48°49' W 125°33'1110.5
2016-Aug-18 22:33N 48°54' W 125°47'1010.4
2016-Aug-18 21:33N 49°00' W 126°01'10 9.7
2016-Aug-18 20:31N 49°06' W 126°13'9 9.3
2016-Aug-18 19:30N 49°12' W 126°24'9 9.4
2016-Aug-18 18:33N 49°17' W 126°36'9 9.1
2016-Aug-18 17:32N 49°23' W 126°47'  

Dump ship's entire track history